createdAt,value
2023-12-08T00:01:26.165Z,5.55
2023-12-08T00:03:54.418Z,5.51
2023-12-08T00:06:21.601Z,5.42
2023-12-08T00:08:48.451Z,5.50
2023-12-08T00:11:15.335Z,5.58
2023-12-08T00:13:42.645Z,5.61
2023-12-08T00:16:09.609Z,5.60
2023-12-08T00:18:40.919Z,5.52
2023-12-08T00:21:08.207Z,5.53
2023-12-08T00:23:44.041Z,5.55
2023-12-08T00:26:20.865Z,5.62
2023-12-08T00:29:01.921Z,5.59
2023-12-08T00:31:33.018Z,5.48
2023-12-08T00:34:10.140Z,5.44
2023-12-08T00:36:48.990Z,5.33
2023-12-08T00:39:24.266Z,5.32
2023-12-08T00:41:54.123Z,5.40
2023-12-08T00:44:20.945Z,5.43
2023-12-08T00:46:47.728Z,5.44
2023-12-08T00:49:14.670Z,5.47
2023-12-08T00:51:42.841Z,5.40
2023-12-08T00:54:10.568Z,5.44
2023-12-08T00:56:38.445Z,5.46
2023-12-08T00:59:05.201Z,5.46
2023-12-08T01:01:31.964Z,5.49
2023-12-08T01:03:58.777Z,5.52
2023-12-08T01:06:25.753Z,5.48
2023-12-08T01:08:52.643Z,5.48
2023-12-08T01:11:27.038Z,5.43
2023-12-08T01:13:55.321Z,5.42
2023-12-08T01:16:22.070Z,5.41
2023-12-08T01:18:49.018Z,5.45
2023-12-08T01:21:15.831Z,5.45
2023-12-08T01:23:42.664Z,5.45
2023-12-08T01:26:12.280Z,5.44
2023-12-08T01:28:41.660Z,5.44
2023-12-08T01:31:08.479Z,5.38
2023-12-08T01:33:35.411Z,5.37
2023-12-08T01:36:38.459Z,5.35
2023-12-08T01:38:52.029Z,5.29
2023-12-08T01:41:19.272Z,5.30
2023-12-08T01:43:46.709Z,5.32
2023-12-08T01:46:16.550Z,5.30
2023-12-08T01:48:47.381Z,5.29
2023-12-08T01:51:18.763Z,5.35
2023-12-08T01:53:50.788Z,5.26
2023-12-08T01:56:17.580Z,5.27
2023-12-08T01:58:45.720Z,5.26
2023-12-08T02:01:12.808Z,5.24
2023-12-08T02:03:41.744Z,5.30
2023-12-08T02:06:09.163Z,5.36
2023-12-08T02:08:36.708Z,5.36
2023-12-08T02:11:03.625Z,5.36
2023-12-08T02:13:30.521Z,5.32
2023-12-08T02:16:07.912Z,5.33
2023-12-08T02:18:38.332Z,5.37
2023-12-08T02:21:09.894Z,5.38
2023-12-08T02:23:37.475Z,5.39
2023-12-08T02:26:17.310Z,5.33
2023-12-08T02:28:46.612Z,5.40
2023-12-08T02:31:17.374Z,5.39
2023-12-08T02:33:46.259Z,5.37
2023-12-08T02:36:17.759Z,5.39
2023-12-08T02:38:47.492Z,5.35
2023-12-08T02:41:14.829Z,5.39
2023-12-08T02:43:41.628Z,5.39
2023-12-08T02:46:08.367Z,5.40
2023-12-08T02:48:35.470Z,5.43
2023-12-08T02:51:04.380Z,5.40
2023-12-08T02:53:31.528Z,5.40
2023-12-08T02:55:58.289Z,5.44
2023-12-08T02:58:25.043Z,5.44
2023-12-08T03:00:57.812Z,5.43
2023-12-08T03:03:24.748Z,5.40
2023-12-08T03:05:51.588Z,5.43
2023-12-08T03:08:18.392Z,5.37
2023-12-08T03:10:49.234Z,5.35
2023-12-08T03:13:16.013Z,5.36
2023-12-08T03:15:42.836Z,5.37
2023-12-08T03:18:09.684Z,5.35
2023-12-08T03:20:36.630Z,5.36
2023-12-08T03:23:03.520Z,5.34
2023-12-08T03:25:30.385Z,5.31
2023-12-08T03:27:57.123Z,5.30
2023-12-08T03:30:23.917Z,5.26
2023-12-08T03:32:50.947Z,5.29
2023-12-08T03:35:17.809Z,5.30
2023-12-08T03:37:44.553Z,5.33
2023-12-08T03:40:11.703Z,5.28
2023-12-08T03:42:38.599Z,5.30
2023-12-08T03:45:06.338Z,5.30
2023-12-08T03:47:33.602Z,5.21
2023-12-08T03:50:00.486Z,5.15
2023-12-08T03:52:27.912Z,5.13
2023-12-08T03:54:54.765Z,5.10
2023-12-08T03:57:22.216Z,5.14
2023-12-08T03:59:49.105Z,5.10
2023-12-08T04:02:16.095Z,5.15
2023-12-08T04:04:43.529Z,5.13
2023-12-08T04:07:10.408Z,5.17
2023-12-08T04:09:37.281Z,5.19
2023-12-08T04:12:04.390Z,5.22
2023-12-08T04:14:31.355Z,5.24
2023-12-08T04:16:59.715Z,5.25
2023-12-08T04:19:26.667Z,5.24
2023-12-08T04:21:53.552Z,5.30
2023-12-08T04:24:25.032Z,5.30
2023-12-08T04:26:51.841Z,5.33
2023-12-08T04:29:18.596Z,5.34
2023-12-08T04:31:45.497Z,5.43
2023-12-08T04:34:12.717Z,5.53
2023-12-08T04:36:39.584Z,5.57
2023-12-08T04:39:06.411Z,5.60
2023-12-08T04:41:33.295Z,5.56
2023-12-08T04:44:00.166Z,5.62
2023-12-08T04:46:26.944Z,5.67
2023-12-08T04:48:54.058Z,5.70
2023-12-08T04:51:20.902Z,5.77
2023-12-08T04:53:47.860Z,5.68
2023-12-08T04:56:14.643Z,5.60
2023-12-08T04:58:41.441Z,5.63
2023-12-08T05:01:13.445Z,5.58
2023-12-08T05:03:43.076Z,5.55
2023-12-08T05:06:10.501Z,5.56
2023-12-08T05:08:38.006Z,5.54
2023-12-08T05:11:04.892Z,5.57
2023-12-08T05:13:31.800Z,5.57
2023-12-08T05:15:58.676Z,5.56
2023-12-08T05:18:25.643Z,5.60
2023-12-08T05:20:52.780Z,5.59
2023-12-08T05:23:24.512Z,5.65
2023-12-08T05:25:51.332Z,5.68
2023-12-08T05:28:23.384Z,5.68
2023-12-08T05:30:50.056Z,5.73
2023-12-08T05:33:16.949Z,5.61
2023-12-08T05:35:43.872Z,5.49
2023-12-08T05:38:10.622Z,5.31
2023-12-08T05:40:37.689Z,5.27
2023-12-08T05:43:04.968Z,5.33
2023-12-08T05:45:31.769Z,5.35
2023-12-08T05:47:58.677Z,5.36
2023-12-08T05:50:25.704Z,5.31
2023-12-08T05:52:52.628Z,5.30
2023-12-08T05:55:19.422Z,5.17
2023-12-08T05:57:46.452Z,5.09
2023-12-08T06:00:13.974Z,5.16
2023-12-08T06:02:44.436Z,5.13
2023-12-08T06:05:12.162Z,5.13
2023-12-08T06:07:39.444Z,5.17
2023-12-08T06:10:07.601Z,5.16
2023-12-08T06:12:34.524Z,5.17
2023-12-08T06:15:01.686Z,5.09
2023-12-08T06:17:29.472Z,5.06
2023-12-08T06:19:57.746Z,5.18
2023-12-08T06:22:24.944Z,5.13
2023-12-08T06:24:51.927Z,5.00
2023-12-08T06:27:18.775Z,4.97
2023-12-08T06:29:45.782Z,5.06
2023-12-08T06:32:12.644Z,5.06
2023-12-08T06:34:39.618Z,5.06
2023-12-08T06:37:06.474Z,5.11
2023-12-08T06:39:44.307Z,5.11
2023-12-08T06:42:13.698Z,5.21
2023-12-08T06:44:40.537Z,5.20
2023-12-08T06:47:07.437Z,5.23
2023-12-08T06:49:34.518Z,5.26
2023-12-08T06:52:01.327Z,5.28
2023-12-08T06:54:28.147Z,5.27
2023-12-08T06:56:55.279Z,5.22
2023-12-08T06:59:22.140Z,5.25
2023-12-08T07:01:48.875Z,5.26
2023-12-08T07:04:15.668Z,5.28
2023-12-08T07:06:42.637Z,5.29
2023-12-08T07:09:09.527Z,5.25
2023-12-08T07:11:36.537Z,5.27
2023-12-08T07:14:03.424Z,5.29
2023-12-08T07:16:30.239Z,5.29
2023-12-08T07:18:58.609Z,5.15
2023-12-08T07:21:26.001Z,5.10
2023-12-08T07:23:52.867Z,5.19
2023-12-08T07:26:19.666Z,5.33
2023-12-08T07:28:46.604Z,5.37
2023-12-08T07:31:13.403Z,5.36
2023-12-08T07:33:42.128Z,5.40
2023-12-08T07:36:09.330Z,5.42
2023-12-08T07:38:36.076Z,5.40
2023-12-08T07:41:03.011Z,5.46
2023-12-08T07:43:29.841Z,5.53
2023-12-08T07:45:59.985Z,5.57
2023-12-08T07:48:29.257Z,5.54
2023-12-08T07:50:57.242Z,5.60
2023-12-08T07:53:24.124Z,5.64
2023-12-08T07:55:51.142Z,5.62
2023-12-08T07:58:17.916Z,5.62
2023-12-08T08:00:44.712Z,5.70
2023-12-08T08:03:11.661Z,5.74
2023-12-08T08:05:38.599Z,5.79
2023-12-08T08:08:05.774Z,5.87
2023-12-08T08:10:32.718Z,5.89
2023-12-08T08:12:59.504Z,5.92
2023-12-08T08:15:26.337Z,5.94
2023-12-08T08:17:56.421Z,5.97
2023-12-08T08:20:24.073Z,5.84
2023-12-08T08:22:50.846Z,5.55
2023-12-08T08:25:17.639Z,5.56
2023-12-08T08:27:44.431Z,5.69
2023-12-08T08:30:11.638Z,5.82
2023-12-08T08:32:38.485Z,5.70
2023-12-08T08:35:05.852Z,5.67
2023-12-08T08:37:33.800Z,5.66
2023-12-08T08:40:00.670Z,5.78
2023-12-08T08:42:27.459Z,5.87
2023-12-08T08:44:54.389Z,5.95
2023-12-08T08:47:21.398Z,6.03
2023-12-08T08:49:48.469Z,6.09
2023-12-08T08:52:15.393Z,6.10
2023-12-08T08:54:50.640Z,6.10
2023-12-08T08:57:17.962Z,6.14
2023-12-08T08:59:45.209Z,6.12
2023-12-08T09:02:11.978Z,6.16
2023-12-08T09:04:38.890Z,6.25
2023-12-08T09:07:05.944Z,6.21
2023-12-08T09:09:33.030Z,6.22
2023-12-08T09:12:02.410Z,6.30
2023-12-08T09:14:29.217Z,6.21
2023-12-08T09:16:56.080Z,6.16
2023-12-08T09:19:22.917Z,6.12
2023-12-08T09:21:54.228Z,6.16
2023-12-08T09:24:22.728Z,6.19
2023-12-08T09:26:50.333Z,6.12
2023-12-08T09:29:17.937Z,6.13
2023-12-08T09:31:47.322Z,6.18
2023-12-08T09:34:14.259Z,6.21
2023-12-08T09:36:41.376Z,6.27
2023-12-08T09:39:28.069Z,6.25
2023-12-08T09:42:00.937Z,6.21
2023-12-08T09:44:28.784Z,6.08
2023-12-08T09:46:57.407Z,5.94
2023-12-08T09:49:31.325Z,6.05
2023-12-08T09:51:58.517Z,6.14
2023-12-08T09:54:32.479Z,6.13
2023-12-08T09:57:04.163Z,6.19
2023-12-08T09:59:31.621Z,6.08
2023-12-08T10:01:58.615Z,6.08
2023-12-08T10:04:25.452Z,5.99
2023-12-08T10:06:53.369Z,5.99
2023-12-08T10:09:21.346Z,6.19
2023-12-08T10:12:06.773Z,6.29
2023-12-08T10:14:33.644Z,6.41
2023-12-08T10:17:02.195Z,6.38
2023-12-08T10:19:29.152Z,6.47
2023-12-08T10:22:04.945Z,6.30
2023-12-08T10:24:34.601Z,6.38
2023-12-08T10:27:02.191Z,6.24
2023-12-08T10:29:32.601Z,6.28
2023-12-08T10:31:59.804Z,6.40
2023-12-08T10:34:29.415Z,6.45
2023-12-08T10:36:58.033Z,6.49
2023-12-08T10:39:27.918Z,6.61
2023-12-08T10:41:55.077Z,6.67
2023-12-08T10:44:24.920Z,6.72
2023-12-08T10:46:53.269Z,6.68
2023-12-08T10:49:21.421Z,6.67
2023-12-08T10:51:49.500Z,6.67
2023-12-08T10:54:20.314Z,6.71
2023-12-08T10:56:48.080Z,6.71
2023-12-08T10:59:22.256Z,6.70
2023-12-08T11:01:50.045Z,6.71
2023-12-08T11:04:21.767Z,6.67
2023-12-08T11:07:00.632Z,6.66
2023-12-08T11:09:29.725Z,6.66
2023-12-08T11:11:58.748Z,6.59
2023-12-08T11:14:50.146Z,6.70
2023-12-08T11:17:35.328Z,6.50
2023-12-08T11:20:02.909Z,6.53
2023-12-08T11:22:29.790Z,6.70
2023-12-08T11:24:58.821Z,6.77
2023-12-08T11:27:38.630Z,6.79
2023-12-08T11:30:30.798Z,6.89
2023-12-08T11:33:16.331Z,6.89
2023-12-08T11:35:51.445Z,6.66
2023-12-08T11:38:28.868Z,6.65
2023-12-08T11:40:55.694Z,6.72
2023-12-08T11:43:22.495Z,6.74
2023-12-08T11:45:52.850Z,6.72
2023-12-08T11:48:19.846Z,6.76
2023-12-08T11:50:47.929Z,6.75
2023-12-08T11:53:14.856Z,6.66
2023-12-08T11:55:41.716Z,6.73
2023-12-08T11:58:10.703Z,6.75
2023-12-08T12:00:39.758Z,6.82
2023-12-08T12:03:08.739Z,6.78
2023-12-08T12:05:35.916Z,6.67
2023-12-08T12:08:03.134Z,6.62
2023-12-08T12:10:32.340Z,6.49
2023-12-08T12:13:05.980Z,6.51
2023-12-08T12:15:34.104Z,6.50
2023-12-08T12:18:11.952Z,6.48
2023-12-08T12:20:41.651Z,6.45
2023-12-08T12:23:08.585Z,6.44
2023-12-08T12:25:42.880Z,6.46
2023-12-08T12:28:09.646Z,6.56
2023-12-08T12:30:39.761Z,6.54
2023-12-08T12:33:07.380Z,6.60
2023-12-08T12:35:34.478Z,6.71
2023-12-08T12:38:01.803Z,6.73
2023-12-08T12:40:28.761Z,6.61
2023-12-08T12:42:55.587Z,6.68
2023-12-08T12:45:28.168Z,6.69
2023-12-08T12:48:09.871Z,6.80
2023-12-08T12:50:46.694Z,6.79
2023-12-08T12:53:20.205Z,6.85
2023-12-08T12:55:48.413Z,6.96
2023-12-08T12:58:22.918Z,7.01
2023-12-08T13:00:51.597Z,7.02
2023-12-08T13:03:21.466Z,6.89
2023-12-08T13:05:49.920Z,6.89
2023-12-08T13:08:17.957Z,6.97
2023-12-08T13:10:46.242Z,6.94
2023-12-08T13:13:13.718Z,6.87
2023-12-08T13:15:41.436Z,6.72
2023-12-08T13:18:08.865Z,6.65
2023-12-08T13:20:36.508Z,6.60
2023-12-08T13:23:05.088Z,6.57
2023-12-08T13:25:31.838Z,6.51
2023-12-08T13:27:58.659Z,6.61
2023-12-08T13:30:25.716Z,6.69
2023-12-08T13:32:52.694Z,6.71
2023-12-08T13:35:19.595Z,6.75
2023-12-08T13:37:46.620Z,6.80
2023-12-08T13:40:13.537Z,6.82
2023-12-08T13:42:40.777Z,6.75
2023-12-08T13:45:10.597Z,6.80
2023-12-08T13:47:37.528Z,6.82
2023-12-08T13:50:04.850Z,6.80
2023-12-08T13:52:31.621Z,6.86
2023-12-08T13:54:58.544Z,6.89
2023-12-08T13:57:26.049Z,7.00
2023-12-08T13:59:53.279Z,7.03
2023-12-08T14:02:20.467Z,7.02
2023-12-08T14:04:47.451Z,7.04
2023-12-08T14:07:14.319Z,7.10
2023-12-08T14:09:43.130Z,7.05
2023-12-08T14:12:11.021Z,7.14
2023-12-08T14:14:38.415Z,7.01
2023-12-08T14:17:05.976Z,6.99
2023-12-08T14:19:33.978Z,6.93
2023-12-08T14:22:00.901Z,6.96
2023-12-08T14:24:27.998Z,6.86
2023-12-08T14:26:57.699Z,6.75
2023-12-08T14:29:24.628Z,6.81
2023-12-08T14:31:51.582Z,6.81
2023-12-08T14:34:18.498Z,6.83
2023-12-08T14:36:46.462Z,6.90
2023-12-08T14:39:13.439Z,6.90
2023-12-08T14:41:40.279Z,6.89
2023-12-08T14:44:07.111Z,6.90
2023-12-08T14:46:35.242Z,6.92
2023-12-08T14:49:02.885Z,6.99
2023-12-08T14:51:29.735Z,6.90
2023-12-08T14:53:56.555Z,6.80
2023-12-08T14:56:23.389Z,6.76
2023-12-08T14:58:53.629Z,6.76
2023-12-08T15:01:21.408Z,6.74
2023-12-08T15:03:48.308Z,6.75
2023-12-08T15:06:15.367Z,6.80
2023-12-08T15:08:42.483Z,6.78
2023-12-08T15:11:09.471Z,6.77
2023-12-08T15:13:36.285Z,6.76
2023-12-08T15:16:03.143Z,6.76
2023-12-08T15:18:38.445Z,6.80
2023-12-08T15:21:05.347Z,6.78
2023-12-08T15:23:32.156Z,6.79
2023-12-08T15:25:59.750Z,6.83
2023-12-08T15:28:26.609Z,6.87
2023-12-08T15:30:53.418Z,6.78
2023-12-08T15:33:24.295Z,6.77
2023-12-08T15:35:51.776Z,6.79
2023-12-08T15:38:18.643Z,6.85
2023-12-08T15:40:45.525Z,6.82
2023-12-08T15:43:12.330Z,6.80
2023-12-08T15:45:39.112Z,6.83
2023-12-08T15:48:08.603Z,6.84
2023-12-08T15:50:35.406Z,6.77
2023-12-08T15:53:02.229Z,6.75
2023-12-08T15:55:29.074Z,6.82
2023-12-08T15:57:55.800Z,6.79
2023-12-08T16:00:22.797Z,6.77
2023-12-08T16:02:49.731Z,6.78
2023-12-08T16:05:16.466Z,6.80
2023-12-08T16:07:43.394Z,6.78
2023-12-08T16:10:10.649Z,6.76
2023-12-08T16:12:37.542Z,6.68
2023-12-08T16:15:06.909Z,6.73
2023-12-08T16:17:33.760Z,6.63
2023-12-08T16:20:03.517Z,6.67
2023-12-08T16:22:31.193Z,6.71
2023-12-08T16:24:57.931Z,6.77
2023-12-08T16:27:24.709Z,6.71
2023-12-08T16:29:51.592Z,6.70
2023-12-08T16:32:18.462Z,6.75
2023-12-08T16:34:45.224Z,6.79
2023-12-08T16:37:12.355Z,6.82
2023-12-08T16:39:39.154Z,6.79
2023-12-08T16:42:06.323Z,6.79
2023-12-08T16:44:33.112Z,6.66
2023-12-08T16:46:59.981Z,6.75
2023-12-08T16:49:26.924Z,6.78
2023-12-08T16:51:53.730Z,6.75
2023-12-08T16:54:20.639Z,6.82
2023-12-08T16:56:50.622Z,6.84
2023-12-08T16:59:17.388Z,6.88
2023-12-08T17:01:45.210Z,6.79
2023-12-08T17:04:12.110Z,6.74
2023-12-08T17:06:41.939Z,6.69
2023-12-08T17:09:09.749Z,6.73
2023-12-08T17:11:36.687Z,6.65
2023-12-08T17:14:03.530Z,6.72
2023-12-08T17:16:30.355Z,6.66
2023-12-08T17:18:57.254Z,6.68
2023-12-08T17:21:24.554Z,6.73
2023-12-08T17:23:51.658Z,6.70
2023-12-08T17:26:25.344Z,6.58
2023-12-08T17:28:59.357Z,6.70
2023-12-08T17:31:26.342Z,6.72
2023-12-08T17:34:08.556Z,6.68
2023-12-08T17:36:42.425Z,6.54
2023-12-08T17:39:09.234Z,6.59
2023-12-08T17:41:36.045Z,6.56
2023-12-08T17:44:02.902Z,6.63
2023-12-08T17:46:29.792Z,6.61
2023-12-08T17:48:56.919Z,6.51
2023-12-08T17:51:23.859Z,6.34
2023-12-08T17:53:52.019Z,6.50
2023-12-08T17:56:18.765Z,6.32
2023-12-08T17:58:45.627Z,6.29
2023-12-08T18:01:13.500Z,6.33
2023-12-08T18:03:40.900Z,6.35
2023-12-08T18:06:08.055Z,6.35
2023-12-08T18:08:34.835Z,6.31
2023-12-08T18:11:01.680Z,6.34
2023-12-08T18:13:28.430Z,6.47
2023-12-08T18:15:55.222Z,6.46
2023-12-08T18:18:22.248Z,6.52
2023-12-08T18:20:49.103Z,6.46
2023-12-08T18:23:15.910Z,6.59
2023-12-08T18:25:42.626Z,6.61
2023-12-08T18:28:28.056Z,6.61
2023-12-08T18:31:01.399Z,6.57
2023-12-08T18:33:28.147Z,6.70
2023-12-08T18:35:57.553Z,6.68
2023-12-08T18:38:24.360Z,6.74
2023-12-08T18:40:51.222Z,6.65
2023-12-08T18:43:18.002Z,6.66
2023-12-08T18:45:44.924Z,6.74
2023-12-08T18:48:12.004Z,6.64
2023-12-08T18:50:39.313Z,6.54
2023-12-08T18:53:09.970Z,6.66
2023-12-08T18:55:36.807Z,6.70
2023-12-08T18:58:03.695Z,6.76
2023-12-08T19:00:33.551Z,6.74
2023-12-08T19:03:00.502Z,6.58
2023-12-08T19:05:27.240Z,6.65
2023-12-08T19:07:54.066Z,6.63
2023-12-08T19:10:20.918Z,6.57
2023-12-08T19:12:47.706Z,6.66
2023-12-08T19:15:14.734Z,6.71
2023-12-08T19:17:41.545Z,6.73
2023-12-08T19:20:08.666Z,6.80
2023-12-08T19:22:37.814Z,6.76
2023-12-08T19:25:04.954Z,6.71
2023-12-08T19:27:31.707Z,6.70
2023-12-08T19:29:58.565Z,6.63
2023-12-08T19:32:25.520Z,6.69
2023-12-08T19:34:52.417Z,6.63
2023-12-08T19:37:19.206Z,6.50
2023-12-08T19:39:45.970Z,6.42
2023-12-08T19:42:12.762Z,6.43
2023-12-08T19:44:39.529Z,6.52
2023-12-08T19:47:06.400Z,6.65
2023-12-08T19:49:33.372Z,6.50
2023-12-08T19:52:00.180Z,6.53
2023-12-08T19:54:26.973Z,6.67
2023-12-08T19:56:58.338Z,6.74
2023-12-08T19:59:25.858Z,6.72
2023-12-08T20:01:52.636Z,6.53
2023-12-08T20:04:19.475Z,6.48
2023-12-08T20:06:46.420Z,6.19
2023-12-08T20:09:16.060Z,6.31
2023-12-08T20:11:44.122Z,6.35
2023-12-08T20:14:11.042Z,6.36
2023-12-08T20:16:42.508Z,6.26
2023-12-08T20:19:10.401Z,6.25
2023-12-08T20:21:37.422Z,6.34
2023-12-08T20:24:04.644Z,6.35
2023-12-08T20:26:31.590Z,6.39
2023-12-08T20:28:58.401Z,6.42
2023-12-08T20:31:28.173Z,6.44
2023-12-08T20:33:59.043Z,6.55
2023-12-08T20:36:26.805Z,6.48
2023-12-08T20:38:53.717Z,6.57
2023-12-08T20:41:24.557Z,6.54
2023-12-08T20:43:51.650Z,6.68
2023-12-08T20:46:18.432Z,6.64
2023-12-08T20:48:45.369Z,6.68
2023-12-08T20:51:12.192Z,6.59
2023-12-08T20:53:39.029Z,6.65
2023-12-08T20:56:09.836Z,6.71
2023-12-08T20:58:36.709Z,6.73
2023-12-08T21:01:03.733Z,6.71
2023-12-08T21:03:30.691Z,6.72
2023-12-08T21:05:57.556Z,6.69
2023-12-08T21:08:27.554Z,6.65
2023-12-08T21:10:59.709Z,6.49
2023-12-08T21:13:33.665Z,6.59
2023-12-08T21:16:02.583Z,6.44
2023-12-08T21:18:29.487Z,6.46
2023-12-08T21:20:56.422Z,6.17
2023-12-08T21:23:24.560Z,6.24
2023-12-08T21:25:51.279Z,6.40
2023-12-08T21:28:18.030Z,6.48
2023-12-08T21:30:47.949Z,6.50
2023-12-08T21:33:15.037Z,6.50
2023-12-08T21:35:42.240Z,6.47
2023-12-08T21:38:08.998Z,6.47
2023-12-08T21:40:35.818Z,6.39
2023-12-08T21:43:03.126Z,6.49
2023-12-08T21:45:29.930Z,6.61
2023-12-08T21:47:57.025Z,6.67
2023-12-08T21:50:23.765Z,6.67
2023-12-08T21:52:53.187Z,6.71
2023-12-08T21:55:20.757Z,6.75
2023-12-08T21:57:47.617Z,6.75
2023-12-08T22:00:15.621Z,6.71
2023-12-08T22:02:42.965Z,6.75
2023-12-08T22:05:09.886Z,6.75
2023-12-08T22:07:38.423Z,6.69
2023-12-08T22:10:05.738Z,6.72
2023-12-08T22:12:32.683Z,6.77
2023-12-08T22:15:07.034Z,6.82
2023-12-08T22:17:40.458Z,6.87
2023-12-08T22:20:08.428Z,6.80
2023-12-08T22:22:35.287Z,6.82
2023-12-08T22:25:05.481Z,6.83
2023-12-08T22:27:32.255Z,6.83
2023-12-08T22:29:59.245Z,6.86
2023-12-08T22:32:26.017Z,6.84
2023-12-08T22:35:00.098Z,6.85
2023-12-08T22:37:27.285Z,6.81
2023-12-08T22:39:54.230Z,6.82
2023-12-08T22:42:26.619Z,6.89
2023-12-08T22:44:53.536Z,6.91
2023-12-08T22:47:20.427Z,6.93
2023-12-08T22:49:47.210Z,6.96
2023-12-08T22:52:14.102Z,6.95
2023-12-08T22:54:41.310Z,6.85
2023-12-08T22:57:08.043Z,6.92
2023-12-08T22:59:34.996Z,6.87
2023-12-08T23:02:01.746Z,6.81
2023-12-08T23:04:28.631Z,6.81
2023-12-08T23:06:55.450Z,6.81
2023-12-08T23:09:22.290Z,6.86
2023-12-08T23:11:49.130Z,6.84
2023-12-08T23:14:15.896Z,6.84
2023-12-08T23:16:42.661Z,6.86
2023-12-08T23:19:16.137Z,6.87
2023-12-08T23:21:43.335Z,6.91
2023-12-08T23:24:10.289Z,6.94
2023-12-08T23:26:42.418Z,6.94
2023-12-08T23:29:09.042Z,7.01
2023-12-08T23:31:36.873Z,6.96
2023-12-08T23:34:04.041Z,6.90
2023-12-08T23:36:31.335Z,6.90
2023-12-08T23:38:58.171Z,6.91
2023-12-08T23:41:25.034Z,6.85
2023-12-08T23:43:54.175Z,6.90
2023-12-08T23:46:21.563Z,6.96
2023-12-08T23:48:48.516Z,6.95
2023-12-08T23:51:15.443Z,6.96
2023-12-08T23:53:45.604Z,6.95
2023-12-08T23:56:13.054Z,6.92
2023-12-08T23:58:51.465Z,6.94
